Time;durP1;ratioP1;P1;durP2;ratioP2;P2;SDS_P1;SDS_P2;PMS_P1;PMS_P2;Temp;Humidity;BMP_temperature;BMP_pressure;BME280_temperature;BME280_humidity;BME280_pressure;Samples;Min_cycle;Max_cycle;Signal;HPM_P1;HPM_P2
2024/04/03 00:00:26;;;;;;;;;;;;;;;;;;4910300;28;20453;-87
2024/04/03 00:02:52;;;;;;;;;;;;;;;;;;4908879;28;20493;-84
2024/04/03 00:05:19;;;;;;;;;;;;;;;;;;4917027;28;20460;-85
2024/04/03 00:07:45;;;;;;;;;;;;;;;;;;4449560;28;6782224;-86
2024/04/03 00:10:22;;;;;;;;;;;;;;;;;;4409379;28;15304215;-84
2024/04/03 00:12:48;;;;;;;;;;;;;;;;;;4915375;28;25108;-86
2024/04/03 00:15:15;;;;;;;;;;;;;;;;;;4913896;28;22093;-85
2024/04/03 00:17:41;;;;;;;;;;;;;;;;;;4914920;28;26082;-84
2024/04/03 00:20:08;;;;;;;;;;;;;;;;;;4996592;28;25179;-84
2024/04/03 00:22:34;;;;;;;;;;;;;;;;;;4914267;28;65101;-84
2024/04/03 00:25:01;;;;;;;;;;;;;;;;;;4973088;28;25089;-83
2024/04/03 00:27:27;;;;;;;;;;;;;;;;;;5004702;28;163158;-85
2024/04/03 00:29:54;;;;;;;;;;;;;;;;;;5025718;28;19933;-84
2024/04/03 00:32:20;;;;;;;;;;;;;;;;;;5032811;28;19976;-85
2024/04/03 00:34:53;;;;;;;10.48;3.50;;;;;;;;;;5025543;28;20446;-84
2024/04/03 00:37:19;;;;;;;7.90;2.70;;;;;;;;;;5028237;28;20257;-85
2024/04/03 00:39:46;;;;;;;10.80;3.20;;;;;;;;;;5032952;28;20476;-85
2024/04/03 00:42:13;;;;;;;7.87;2.30;;;;;;;;;;5024270;28;20473;-86
2024/04/03 00:44:45;;;;;;;7.00;2.37;;;;;;;;;;5033293;28;20460;-84
2024/04/03 00:47:11;;;;;;;7.57;2.33;;;;;;;;;;5030955;28;20463;-85
2024/04/03 00:49:38;;;;;;;8.47;2.60;;;;;;;;;;5024793;28;21347;-85
2024/04/03 00:52:06;;;;;;;7.53;2.83;;;;;;;;;;5033532;28;20461;-86
2024/04/03 00:54:34;;;;;;;9.27;2.67;;;;;;;;;;5035976;28;20452;-86
2024/04/03 00:57:00;;;;;;;7.40;2.30;;;;;;;;;;5027025;28;20469;-86
2024/04/03 00:59:29;;;;;;;8.00;2.57;;;;;;;;;;5027360;28;21047;-80
2024/04/03 01:01:55;;;;;;;9.40;2.77;;;;;;;;;;5020261;28;20540;-81
2024/04/03 01:04:23;;;;;;;7.10;2.20;;;;;;;;;;5034389;28;20449;-80
2024/04/03 01:06:49;;;;;;;7.00;2.47;;;;;;;;;;5032368;28;20554;-84
2024/04/03 01:09:17;;;;;;;8.60;2.77;;;;;;;;;;5033842;28;20542;-84
2024/04/03 01:11:44;;;;;;;10.37;2.70;;;;;;;;;;5023515;28;20538;-81
2024/04/03 01:14:11;;;;;;;9.13;2.27;;;;;;;;;;5028456;28;20464;-82
2024/04/03 01:16:40;;;;;;;9.73;3.67;;;;;;;;;;5033176;28;20499;-82
2024/04/03 01:19:07;;;;;;;9.70;2.70;;;;;;;;;;5031679;28;20482;-81
2024/04/03 01:21:33;;;;;;;5.80;1.90;;;;;;;;;;5034215;28;20464;-85
2024/04/03 01:24:02;;;;;;;7.53;2.40;;;;;;;;;;5042569;28;20458;-86
2024/04/03 01:26:30;;;;;;;7.67;2.33;;;;;;;;;;5042943;28;20464;-84
2024/04/03 01:28:57;;;;;;;;;;;;;;;;;;5035213;28;20888;-83
2024/04/03 01:31:22;;;;;;;;;;;;;;;;;;5034978;28;20032;-84
2024/04/03 01:33:51;;;;;;;;;;;;;;;;;;5038456;28;19968;-82
2024/04/03 01:36:17;;;;;;;;;;;;;;;;;;5036866;28;19921;-80
2024/04/03 01:38:45;;;;;;;;;;;;;;;;;;5041590;28;19944;-82
2024/04/03 01:41:11;;;;;;;;;;;;;;;;;;5044064;28;19928;-84
2024/04/03 01:43:38;;;;;;;;;;;;;;;;;;5040950;28;19926;-81
2024/04/03 01:46:04;;;;;;;;;;;;;;;;;;5040828;28;19975;-82
2024/04/03 01:48:31;;;;;;;;;;;;;;;;;;5033137;28;20290;-84
2024/04/03 01:50:57;;;;;;;;;;;;;;;;;;5033201;28;20374;-83
2024/04/03 01:53:24;;;;;;;;;;;;;;;;;;5041090;28;19917;-85
2024/04/03 01:55:50;;;;;;;;;;;;;;;;;;5041146;28;19920;-81
2024/04/03 01:58:17;;;;;;;;;;;;;;;;;;5032949;28;20015;-83
2024/04/03 02:00:43;;;;;;;;;;;;;;;;;;5041766;28;20130;-84
2024/04/03 02:03:10;;;;;;;;;;;;;;;;;;5038933;28;19917;-84
2024/04/03 02:05:36;;;;;;;;;;;;;;;;;;5038023;28;20572;-83
2024/04/03 02:08:03;;;;;;;;;;;;;;;;;;5035063;28;19964;-83
2024/04/03 02:10:29;;;;;;;;;;;;;;;;;;5033743;28;19928;-84
2024/04/03 02:12:56;;;;;;;;;;;;;;;;;;5041929;28;19917;-84
2024/04/03 02:15:22;;;;;;;;;;;;;;;;;;5033814;28;19928;-85
2024/04/03 02:17:49;;;;;;;;;;;;;;;;;;5039890;28;20003;-86
2024/04/03 02:20:15;;;;;;;;;;;;;;;;;;5036190;28;19920;-85
2024/04/03 02:22:43;;;;;;;;;;;;;;;;;;5035415;28;20433;-85
2024/04/03 02:25:09;;;;;;;;;;;;;;;;;;5036600;28;19929;-85
2024/04/03 02:27:36;;;;;;;;;;;;;;;;;;5039340;28;20348;-85
2024/04/03 02:30:02;;;;;;;;;;;;;;;;;;5040046;28;20015;-86
2024/04/03 02:32:29;;;;;;;;;;;;;;;;;;5039851;28;19917;-88
2024/04/03 02:34:55;;;;;;;;;;;;;;;;;;5037708;28;20007;-86
2024/04/03 02:37:22;;;;;;;;;;;;;;;;;;5036854;28;19952;-86
2024/04/03 02:39:48;;;;;;;;;;;;;;;;;;5035403;28;19971;-87
2024/04/03 02:42:15;;;;;;;;;;;;;;;;;;5038907;28;19921;-86
2024/04/03 02:44:41;;;;;;;;;;;;;;;;;;5040478;28;19995;-85
2024/04/03 02:47:08;;;;;;;;;;;;;;;;;;5035146;28;19952;-86
2024/04/03 02:49:34;;;;;;;;;;;;;;;;;;5033749;28;19935;-87
2024/04/03 02:52:01;;;;;;;;;;;;;;;;;;5028357;28;19957;-86
2024/04/03 02:54:27;;;;;;;;;;;;;;;;;;5033105;28;19945;-86
2024/04/03 02:56:54;;;;;;;;;;;;;;;;;;5034826;28;20521;-86
2024/04/03 02:59:20;;;;;;;;;;;;;;;;;;5033131;28;19952;-86
2024/04/03 03:01:47;;;;;;;;;;;;;;;;;;5034581;28;20400;-85
2024/04/03 03:04:13;;;;;;;;;;;;;;;;;;5032220;28;20015;-86
2024/04/03 03:06:40;;;;;;;;;;;;;;;;;;5027986;28;20078;-86
2024/04/03 03:09:06;;;;;;;;;;;;;;;;;;5043409;22;19960;-86
2024/04/03 03:14:19;;;;;;;;;;;;;;;;;;5029245;28;20337;-86
2024/04/03 03:16:46;;;;;;;;;;;;;;;;;;5028387;28;19925;-87
2024/04/03 03:19:13;;;;;;;;;;;;;;;;;;5040293;28;19924;-86
2024/04/03 03:21:39;;;;;;;;;;;;;;;;;;5051048;28;20300;-86
2024/04/03 03:26:51;;;;;;;;;;;;;;;;;;5042819;28;20007;-85
2024/04/03 03:29:28;;;;;;;;;;;;;;;;;;5044628;28;20027;-86
2024/04/03 03:31:57;;;;;;;;;;;;;;;;;;5040562;28;19967;-87
2024/04/03 03:34:23;;;;;;;;;;;;;;;;;;5040721;28;20008;-86
2024/04/03 03:36:51;;;;;;;;;;;;;;;;;;5045409;28;19917;-86
2024/04/03 03:39:27;;;;;;;;;;;;;;;;;;5044209;28;19928;-85
2024/04/03 03:42:04;;;;;;;;;;;;;;;;;;5042420;28;19966;-86
2024/04/03 03:44:35;;;;;;;;;;;;;;;;;;5048979;28;19979;-86
2024/04/03 03:47:04;;;;;;;;;;;;;;;;;;5051754;28;20282;-86
2024/04/03 03:55:02;;;;;;;;;;;;;;;;;;5045748;28;19962;-86
2024/04/03 03:57:30;;;;;;;;;;;;;;;;;;5052205;28;19935;-87
2024/04/03 04:00:07;;;;;;;;;;;;;;;;;;5044290;28;19956;-87
2024/04/03 04:02:38;;;;;;;;;;;;;;;;;;5039417;28;19921;-87
2024/04/03 04:05:10;;;;;;;;;;;;;;;;;;5048262;28;19959;-86
2024/04/03 04:07:36;;;;;;;;;;;;;;;;;;5042742;28;19995;-86
2024/04/03 04:10:03;;;;;;;;;;;;;;;;;;5043204;28;19925;-87
2024/04/03 04:12:29;;;;;;;;;;;;;;;;;;5043093;28;19943;-87
2024/04/03 04:14:57;;;;;;;;;;;;;;;;;;5038788;28;19920;-88
2024/04/03 04:17:23;;;;;;;;;;;;;;;;;;5047002;28;19921;-86
2024/04/03 04:22:43;;;;;;;;;;;;;;;;;;5043028;28;20341;-86
2024/04/03 04:25:21;;;;;;;;;;;;;;;;;;;;;
2024/04/03 04:27:52;;;;;;;;;;;;;;;;;;5043360;28;19924;-86
2024/04/03 04:30:18;;;;;;;;;;;;;;;;;;5042753;28;20032;-86
2024/04/03 04:32:49;;;;;;;;;;;;;;;;;;5046737;28;20397;-86
2024/04/03 04:35:17;;;;;;;;;;;;;;;;;;5042669;28;19920;-87
2024/04/03 04:37:44;;;;;;;;;;;;;;;;;;5042062;28;19962;-87
2024/04/03 04:40:14;;;;;;;;;;;;;;;;;;5043564;28;20015;-87
2024/04/03 04:42:47;;;;;;;;;;;;;;;;;;5045775;28;19927;-87
2024/04/03 04:45:22;;;;;;;;;;;;;;;;;;5047637;28;19931;-86
2024/04/03 04:50:29;;;;;;;;;;;;;;;;;;5041832;28;19967;-86
2024/04/03 04:52:55;;;;;;;;;;;;;;;;;;5037398;28;20420;-86
2024/04/03 04:55:24;;;;;;;;;;;;;;;;;;5036571;28;19921;-85
2024/04/03 04:57:50;;;;;;;;;;;;;;;;;;5042517;28;19944;-87
2024/04/03 05:00:17;;;;;;;;;;;;;;;;;;5043806;28;19936;-86
2024/04/03 05:02:45;;;;;;;;;;;;;;;;;;5041789;28;19975;-86
2024/04/03 05:05:16;;;;;;;;;;;;;;;;;;5041969;28;19943;-87
2024/04/03 05:07:43;;;;;;;;;;;;;;;;;;5036610;28;19928;-89
2024/04/03 05:10:10;;;;;;;;;;;;;;;;;;5067787;28;20335;-86
2024/04/03 05:12:35;;;;;;;;;;;;;;;;;;5054378;28;19959;-86
2024/04/03 05:15:03;;;;;;;;;;;;;;;;;;5056977;28;19921;-84
2024/04/03 05:17:29;;;;;;;;;;;;;;;;;;5049915;28;19928;-86
2024/04/03 05:19:55;;;;;;;;;;;;;;;;;;5058128;28;19916;-85
2024/04/03 05:22:21;;;;;;;;;;;;;;;;;;5050669;28;20058;-85
2024/04/03 05:24:48;;;;;;;;;;;;;;;;;;5052934;28;19913;-84
2024/04/03 05:27:14;;;;;;;;;;;;;;;;;;5063794;28;19937;-83
2024/04/03 05:29:41;;;;;;;;;;;;;;;;;;5063662;28;20319;-84
2024/04/03 05:32:07;;;;;;;;;;;;;;;;;;5063303;28;19940;-84
2024/04/03 05:34:34;;;;;;;;;;;;;;;;;;5063280;28;19928;-83
2024/04/03 05:37:01;;;;;;;;;;;;;;;;;;5059072;28;19967;-84
2024/04/03 05:39:29;;;;;;;;;;;;;;;;;;5058380;28;19940;-82
2024/04/03 05:41:55;;;;;;;;;;;;;;;;;;5053700;28;19921;-84
2024/04/03 05:44:21;;;;;;;;;;;;;;;;;;5050691;28;19967;-81
2024/04/03 05:46:47;;;;;;;;;;;;;;;;;;5034415;28;19927;-81
2024/04/03 05:49:14;;;;;;;;;;;;;;;;;;5035017;28;20019;-84
2024/04/03 05:51:40;;;;;;;;;;;;;;;;;;5048916;28;19928;-84
2024/04/03 05:54:07;;;;;;;;;;;;;;;;;;5051547;28;19917;-81
2024/04/03 05:56:35;;;;;;;;;;;;;;;;;;5043338;28;20016;-84
2024/04/03 05:59:02;;;;;;;;;;;;;;;;;;5036541;28;19921;-81
2024/04/03 06:01:28;;;;;;;;;;;;;;;;;;5043943;28;19920;-85
2024/04/03 06:03:55;;;;;;;;;;;;;;;;;;5035996;28;20386;-84
2024/04/03 06:06:22;;;;;;;;;;;;;;;;;;5044501;28;20036;-81
2024/04/03 06:08:49;;;;;;;;;;;;;;;;;;5044279;28;20266;-84
2024/04/03 06:11:15;;;;;;;;;;;;;;;;;;5040922;28;19929;-85
2024/04/03 06:13:41;;;;;;;;;;;;;;;;;;5047714;28;20019;-83
2024/04/03 06:16:07;;;;;;;;;;;;;;;;;;5047314;28;20055;-87
2024/04/03 06:18:34;;;;;;;;;;;;;;;;;;5043095;28;19952;-84
2024/04/03 06:21:00;;;;;;;;;;;;;;;;;;5045390;28;19921;-81
2024/04/03 06:23:27;;;;;;;;;;;;;;;;;;5040924;28;20461;-81
2024/04/03 06:25:53;;;;;;;;;;;;;;;;;;5048904;28;20004;-85
2024/04/03 06:28:20;;;;;;;;;;;;;;;;;;5045187;28;20412;-84
2024/04/03 06:30:47;;;;;;;;;;;;;;;;;;5044697;28;19921;-82
2024/04/03 06:33:13;;;;;;;;;;;;;;;;;;5045655;28;20405;-82
2024/04/03 06:35:40;;;;;;;;;;;;;;;;;;5041519;28;19959;-82
2024/04/03 06:38:06;;;;;;;;;;;;;;;;;;5048517;28;20429;-82
2024/04/03 06:40:33;;;;;;;;;;;;;;;;;;5040388;28;19963;-82
2024/04/03 06:43:03;;;;;;;;;;;;;;;;;;5044825;28;20324;-82
2024/04/03 06:45:31;;;;;;;;;;;;;;;;;;5041636;28;19917;-82
2024/04/03 06:47:57;;;;;;;;;;;;;;;;;;5039217;28;19921;-82
2024/04/03 06:50:25;;;;;;;;;;;;;;;;;;5037429;28;20293;-82
2024/04/03 06:52:51;;;;;;;;;;;;;;;;;;5047611;28;20015;-85
2024/04/03 06:55:17;;;;;;;;;;;;;;;;;;5048167;28;19963;-85
2024/04/03 06:57:43;;;;;;;;;;;;;;;;;;5052060;28;19963;-82
2024/04/03 07:00:10;;;;;;;;;;;;;;;;;;5042668;28;19924;-82
2024/04/03 07:02:36;;;;;;;;;;;;;;;;;;5053155;28;19979;-83
2024/04/03 07:05:04;;;;;;;;;;;;;;;;;;5047774;28;19921;-83
2024/04/03 07:07:30;;;;;;;;;;;;;;;;;;5050984;28;19925;-83
2024/04/03 07:09:59;;;;;;;;;;;;;;;;;;5049966;28;19921;-85
2024/04/03 07:12:25;;;;;;;;;;;;;;;;;;5048815;28;19927;-83
2024/04/03 07:14:54;;;;;;;;;;;;;;;;;;5049895;28;20023;-83
2024/04/03 07:17:20;;;;;;;;;;;;;;;;;;5044654;28;19921;-84
2024/04/03 07:19:47;;;;;;;;;;;;;;;;;;5050008;28;20004;-82
2024/04/03 07:22:13;;;;;;;;;;;;;;;;;;5050998;28;20007;-84
2024/04/03 07:24:40;;;;;;;;;;;;;;;;;;5049011;28;19967;-84
2024/04/03 07:27:06;;;;;;;;;;;;;;;;;;5046672;28;20019;-83
2024/04/03 07:29:33;;;;;;;;;;;;;;;;;;5048821;28;19975;-84
2024/04/03 07:31:59;;;;;;;;;;;;;;;;;;5046244;28;20567;-82
2024/04/03 07:34:26;;;;;;;;;;;;;;;;;;5046340;28;19940;-82
2024/04/03 07:36:53;;;;;;;;;;;;;;;;;;5046987;28;19967;-83
2024/04/03 07:39:19;;;;;;;;;;;;;;;;;;5049899;28;20014;-83
2024/04/03 07:41:46;;;;;;;;;;;;;;;;;;5051911;28;19964;-84
2024/04/03 07:44:16;;;;;;;;;;;;;;;;;;5048438;28;19984;-85
2024/04/03 07:46:43;;;;;;;;;;;;;;;;;;5042968;28;19948;-87
2024/04/03 07:49:09;;;;;;;;;;;;;;;;;;5052571;28;19991;-82
2024/04/03 07:51:36;;;;;;;;;;;;;;;;;;5049530;28;20038;-83
2024/04/03 07:54:02;;;;;;;;;;;;;;;;;;5050445;28;20043;-84
2024/04/03 07:56:29;;;;;;;;;;;;;;;;;;5053469;28;19929;-83
2024/04/03 07:58:54;;;;;;;;;;;;;;;;;;5047894;28;20062;-86
2024/04/03 08:01:21;;;;;;;;;;;;;;;;;;5053305;28;19939;-83
2024/04/03 08:03:47;;;;;;;;;;;;;;;;;;5046413;28;19951;-85
2024/04/03 08:06:14;;;;;;;;;;;;;;;;;;5042834;28;24116;-82
2024/04/03 08:08:40;;;;;;;;;;;;;;;;;;5057753;28;20004;-84
2024/04/03 08:11:07;;;;;;;;;;;;;;;;;;5052432;28;19955;-87
2024/04/03 08:13:33;;;;;;;;;;;;;;;;;;5053576;28;19949;-83
2024/04/03 08:16:00;;;;;;;;;;;;;;;;;;5055815;28;19981;-84
2024/04/03 08:18:35;;;;;;;;;;;;;;;;;;5046627;28;20034;-83
2024/04/03 08:24:02;;;;;;;;;;;;;;;;;;5031308;28;19954;-83
2024/04/03 08:26:31;;;;;;;;;;;;;;;;;;5038025;28;20024;-83
2024/04/03 08:29:00;;;;;;;;;;;;;;;;;;5044297;28;20369;-83
2024/04/03 08:31:26;;;;;;;;;;;;;;;;;;5039189;28;19925;-84
2024/04/03 08:33:53;;;;;;;;;;;;;;;;;;5041437;28;19921;-82
2024/04/03 08:36:19;;;;;;;;;;;;;;;;;;5050649;28;19929;-84
2024/04/03 08:38:46;;;;;;;;;;;;;;;;;;5042476;28;20389;-82
2024/04/03 08:41:12;;;;;;;;;;;;;;;;;;5043611;28;19932;-83
2024/04/03 08:43:39;;;;;;;;;;;;;;;;;;5037816;28;19952;-82
2024/04/03 08:46:05;;;;;;;;;;;;;;;;;;5039740;28;19925;-84
2024/04/03 08:48:32;;;;;;;;;;;;;;;;;;5046046;28;19961;-84
2024/04/03 08:50:58;;;;;;;;;;;;;;;;;;5039407;28;19925;-85
2024/04/03 08:53:25;;;;;;;;;;;;;;;;;;5046306;28;19959;-85
2024/04/03 08:55:51;;;;;;;;;;;;;;;;;;5038222;28;20027;-84
2024/04/03 08:58:18;;;;;;;;;;;;;;;;;;5045893;28;19978;-84
2024/04/03 09:00:43;;;;;;;;;;;;;;;;;;5047546;28;20015;-84
2024/04/03 09:03:10;;;;;;;;;;;;;;;;;;5038604;28;19963;-83
2024/04/03 09:05:36;;;;;;;;;;;;;;;;;;5055840;28;20027;-83
2024/04/03 09:08:03;;;;;;;;;;;;;;;;;;5060704;28;19983;-83
2024/04/03 09:10:29;;;;;;;;;;;;;;;;;;5045480;28;20075;-83
2024/04/03 09:12:56;;;;;;;;;;;;;;;;;;5049729;28;20430;-83
2024/04/03 09:15:22;;;;;;;;;;;;;;;;;;5045441;28;19949;-83
2024/04/03 09:17:49;;;;;;;;;;;;;;;;;;5043660;28;20644;-84
2024/04/03 09:20:15;;;;;;;;;;;;;;;;;;5053301;28;19941;-85
2024/04/03 09:22:42;;;;;;;;;;;;;;;;;;5054946;28;20023;-84
2024/04/03 09:25:08;;;;;;;;;;;;;;;;;;5049074;28;20011;-82
2024/04/03 09:27:35;;;;;;;;;;;;;;;;;;5049351;28;19979;-83
2024/04/03 09:30:01;;;;;;;;;;;;;;;;;;5045470;28;20063;-83
2024/04/03 09:32:28;;;;;;;;;;;;;;;;;;5040818;28;19947;-84
2024/04/03 09:34:54;;;;;;;;;;;;;;;;;;5047056;28;20012;-83
2024/04/03 09:37:21;;;;;;;;;;;;;;;;;;5039138;28;20032;-81
2024/04/03 09:39:47;;;;;;;;;;;;;;;;;;5045972;28;20084;-83
2024/04/03 09:42:14;;;;;;;;;;;;;;;;;;5048235;28;20020;-81
2024/04/03 09:44:40;;;;;;;;;;;;;;;;;;5049814;28;20056;-82
2024/04/03 09:47:11;;;;;;;;;;;;;;;;;;5040270;28;20015;-82
2024/04/03 09:49:36;;;;;;;;;;;;;;;;;;5049146;28;20365;-82
2024/04/03 09:52:03;;;;;;;;;;;;;;;;;;5053435;28;20075;-83
2024/04/03 09:54:30;;;;;;;;;;;;;;;;;;5047182;28;20008;-82
2024/04/03 09:56:57;;;;;;;;;;;;;;;;;;5042080;28;19954;-82
2024/04/03 09:59:23;;;;;;;;;;;;;;;;;;5042438;28;19921;-82
2024/04/03 10:01:50;;;;;;;;;;;;;;;;;;5041106;28;19931;-81
2024/04/03 10:04:16;;;;;;;;;;;;;;;;;;5044073;28;19990;-83
2024/04/03 10:06:43;;;;;;;;;;;;;;;;;;5042792;28;20011;-82
2024/04/03 10:09:09;;;;;;;;;;;;;;;;;;5045209;28;19992;-81
2024/04/03 10:11:36;;;;;;;;;;;;;;;;;;5042460;28;20079;-81
2024/04/03 10:14:02;;;;;;;;;;;;;;;;;;5041985;28;20075;-80
2024/04/03 10:16:29;;;;;;;;;;;;;;;;;;5044737;28;19968;-81
2024/04/03 10:18:55;;;;;;;;;;;;;;;;;;5041076;28;20066;-81
2024/04/03 10:21:23;;;;;;;;;;;;;;;;;;5041268;28;20062;-83
2024/04/03 10:23:49;;;;;;;;;;;;;;;;;;5049274;28;20351;-82
2024/04/03 10:26:15;;;;;;;;;;;;;;;;;;5047196;28;19964;-82
2024/04/03 10:28:41;;;;;;;;;;;;;;;;;;5044567;28;20527;-81
2024/04/03 10:31:08;;;;;;;;;;;;;;;;;;5047272;28;20059;-83
2024/04/03 10:33:34;;;;;;;;;;;;;;;;;;5048143;28;19995;-80
2024/04/03 10:36:01;;;;;;;;;;;;;;;;;;5048484;28;20422;-79
2024/04/03 10:38:27;;;;;;;;;;;;;;;;;;5048351;28;19967;-81
2024/04/03 10:40:54;;;;;;;;;;;;;;;;;;5050207;28;19975;-82
2024/04/03 10:43:20;;;;;;;;;;;;;;;;;;5048527;28;20011;-80
2024/04/03 10:45:47;;;;;;;;;;;;;;;;;;5044827;28;19975;-80
2024/04/03 10:48:13;;;;;;;;;;;;;;;;;;5048115;28;20075;-81
2024/04/03 10:50:40;;;;;;;;;;;;;;;;;;5040774;28;20023;-80
2024/04/03 10:53:08;;;;;;;;;;;;;;;;;;5040163;28;19976;-82
2024/04/03 10:55:36;;;;;;;;;;;;;;;;;;5039041;28;19978;-81
2024/04/03 10:58:02;;;;;;;;;;;;;;;;;;5037654;28;20003;-83
2024/04/03 11:00:29;;;;;;;;;;;;;;;;;;5048270;28;19987;-82
2024/04/03 11:02:55;;;;;;;;;;;;;;;;;;5044719;28;19978;-82
2024/04/03 11:05:22;;;;;;;;;;;;;;;;;;5049577;28;19991;-83
2024/04/03 11:07:47;;;;;;;;;;;;;;;;;;5044007;28;20019;-81
2024/04/03 11:10:14;;;;;;;;;;;;;;;;;;5046396;28;19995;-80
2024/04/03 11:12:40;;;;;;;;;;;;;;;;;;5048117;28;20344;-80
2024/04/03 11:15:09;;;;;;;;;;;;;;;;;;5039648;28;20387;-81
2024/04/03 11:17:35;;;;;;;;;;;;;;;;;;5037254;28;19979;-79
2024/04/03 11:20:03;;;;;;;;;;;;;;;;;;5037224;28;19995;-83
2024/04/03 11:22:29;;;;;;;;;;;;;;;;;;5048492;28;19981;-80
2024/04/03 11:24:56;;;;;;;;;;;;;;;;;;5042182;28;19975;-81
2024/04/03 11:27:22;;;;;;;;;;;;;;;;;;5037111;28;19975;-84
2024/04/03 11:29:49;;;;;;;;;;;;;;;;;;5044513;28;20030;-80
2024/04/03 11:32:16;;;;;;;;;;;;;;;;;;5044545;28;19976;-82
2024/04/03 11:34:43;;;;;;;;;;;;;;;;;;5036526;28;20406;-80
2024/04/03 11:37:09;;;;;;;;;;;;;;;;;;5047169;28;19976;-81
2024/04/03 11:39:36;;;;;;;;;;;;;;;;;;5048623;28;19993;-80
2024/04/03 11:42:01;;;;;;;;;;;;;;;;;;5040482;28;19976;-81
2024/04/03 11:44:28;;;;;;;;;;;;;;;;;;5045584;28;20017;-83
2024/04/03 11:46:54;;;;;;;;;;;;;;;;;;5040055;28;19982;-79
2024/04/03 11:49:21;;;;;;;;;;;;;;;;;;5050466;28;19980;-82
2024/04/03 11:51:48;;;;;;;;;;;;;;;;;;5039296;28;20006;-87
2024/04/03 11:54:16;;;;;;;;;;;;;;;;;;5050475;28;19968;-82
2024/04/03 11:56:42;;;;;;;;;;;;;;;;;;5037386;28;20066;-82
2024/04/03 11:59:10;;;;;;;;;;;;;;;;;;5051848;28;20431;-80
2024/04/03 12:01:36;;;;;;;;;;;;;;;;;;5036497;28;19968;-82
2024/04/03 12:04:03;;;;;;;;;;;;;;;;;;5036197;28;20485;-82
2024/04/03 12:06:29;;;;;;;;;;;;;;;;;;5034780;28;19972;-85
2024/04/03 12:08:56;;;;;;;;;;;;;;;;;;5051113;28;19987;-81
2024/04/03 12:11:22;;;;;;;;;;;;;;;;;;5038008;28;19997;-83
2024/04/03 12:13:49;;;;;;;;;;;;;;;;;;5037623;28;20025;-83
2024/04/03 12:16:20;;;;;;;;;;;;;;;;;;5043764;28;20066;-81
2024/04/03 12:18:50;;;;;;;;;;;;;;;;;;5041850;28;20320;-83
2024/04/03 12:21:16;;;;;;;;;;;;;;;;;;5044586;28;19981;-82
2024/04/03 12:23:43;;;;;;;;;;;;;;;;;;5040912;28;19951;-82
2024/04/03 12:26:09;;;;;;;;;;;;;;;;;;5038217;28;19976;-82
2024/04/03 12:28:36;;;;;;;;;;;;;;;;;;5047004;28;20067;-84
2024/04/03 12:31:02;;;;;;;;;;;;;;;;;;5049636;28;19991;-83
2024/04/03 12:33:29;;;;;;;;;;;;;;;;;;5050364;28;20317;-82
2024/04/03 12:35:55;;;;;;;;;;;;;;;;;;5059662;28;19968;-82
2024/04/03 12:38:22;;;;;;;;;;;;;;;;;;5051148;28;19978;-83
2024/04/03 12:40:48;;;;;;;;;;;;;;;;;;5041275;28;19976;-83
2024/04/03 12:43:15;;;;;;;;;;;;;;;;;;5047452;28;20012;-81
2024/04/03 12:45:41;;;;;;;;;;;;;;;;;;5041259;28;20002;-84
2024/04/03 12:48:08;;;;;;;;;;;;;;;;;;5050183;28;19938;-82
2024/04/03 12:50:34;;;;;;;;;;;;;;;;;;5036022;28;25067;-82
2024/04/03 12:53:01;;;;;;;;;;;;;;;;;;5041179;28;25099;-82
2024/04/03 12:55:28;;;;;;;;;;;;;;;;;;5045054;28;20004;-83
2024/04/03 12:57:55;;;;;;;;;;;;;;;;;;5046515;28;19943;-84
2024/04/03 13:00:21;;;;;;;;;;;;;;;;;;5048689;28;19967;-82
2024/04/03 13:02:48;;;;;;;;;;;;;;;;;;5048694;28;19947;-83
2024/04/03 13:05:14;;;;;;;;;;;;;;;;;;5049159;28;20007;-83
2024/04/03 13:07:41;;;;;;;;;;;;;;;;;;5041260;28;20327;-85
2024/04/03 13:10:07;;;;;;;;;;;;;;;;;;5051082;28;20008;-83
2024/04/03 13:12:34;;;;;;;;;;;;;;;;;;5052090;28;20401;-81
2024/04/03 13:14:59;;;;;;;;;;;;;;;;;;5057153;28;19956;-82
2024/04/03 13:17:26;;;;;;;;;;;;;;;;;;5050297;28;19920;-81
2024/04/03 13:19:56;;;;;;;;;;;;;;;;;;5038759;28;19997;-81
2024/04/03 13:22:23;;;;;;;;;;;;;;;;;;5045475;28;19979;-81
2024/04/03 13:24:49;;;;;;;;;;;;;;;;;;5045116;28;20048;-81
2024/04/03 13:27:16;;;;;;;;;;;;;;;;;;5040732;28;20012;-82
2024/04/03 13:29:42;;;;;;;;;;;;;;;;;;5036614;28;19997;-80
2024/04/03 13:32:08;;;;;;;;;;;;;;;;;;5037416;28;20083;-81
2024/04/03 13:34:34;;;;;;;;;;;;;;;;;;5046634;28;20444;-80
2024/04/03 13:37:01;;;;;;;;;;;;;;;;;;5038692;28;20005;-80
2024/04/03 13:39:27;;;;;;;;;;;;;;;;;;5038779;28;20003;-81
2024/04/03 13:41:54;;;;;;;;;;;;;;;;;;5038777;28;19976;-81
2024/04/03 13:44:20;;;;;;;;;;;;;;;;;;5036878;28;20449;-80
2024/04/03 13:46:47;;;;;;;;;;;;;;;;;;5037504;28;20031;-80
2024/04/03 13:49:15;;;;;;;;;;;;;;;;;;5034688;28;20481;-81
2024/04/03 13:51:42;;;;;;;;;;;;;;;;;;5038295;28;20422;-82
2024/04/03 13:54:09;;;;;;;;;;;;;;;;;;5039233;28;19980;-80
2024/04/03 13:56:36;;;;;;;;;;;;;;;;;;5038043;28;19975;-79
2024/04/03 13:59:02;;;;;;;;;;;;;;;;;;5038048;28;20036;-81
2024/04/03 14:01:29;;;;;;;;;;;;;;;;;;5039823;28;19984;-80
2024/04/03 14:03:55;;;;;;;;;;;;;;;;;;5042402;28;20039;-80
2024/04/03 14:06:22;;;;;;;;;;;;;;;;;;5048995;28;20003;-80
2024/04/03 14:08:51;;;;;;;;;;;;;;;;;;5037154;28;20480;-81
2024/04/03 14:11:18;;;;;;;;;;;;;;;;;;5040662;28;19994;-84
2024/04/03 14:13:47;;;;;;;;;;;;;;;;;;5045483;28;20431;-84
2024/04/03 14:16:14;;;;;;;;;;;;;;;;;;5048344;28;19968;-84
2024/04/03 14:18:40;;;;;;;;;;;;;;;;;;5044490;28;19998;-83
2024/04/03 14:21:07;;;;;;;;;;;;;;;;;;5037144;28;20031;-81
2024/04/03 14:23:33;;;;;;;;;;;;;;;;;;5042859;28;19972;-82
2024/04/03 14:26:00;;;;;;;;;;;;;;;;;;5043029;28;20309;-80
2024/04/03 14:28:27;;;;;;;;;;;;;;;;;;5041890;28;20071;-82
2024/04/03 14:30:54;;;;;;;;;;;;;;;;;;5043635;28;20002;-81
2024/04/03 14:33:20;;;;;;;;;;;;;;;;;;5055402;28;20045;-81
2024/04/03 14:35:47;;;;;;;;;;;;;;;;;;5045587;28;20000;-80
2024/04/03 14:38:13;;;;;;;;;;;;;;;;;;5046364;28;19948;-86
2024/04/03 14:40:40;;;;;;;;;;;;;;;;;;5054384;28;20008;-84
2024/04/03 14:43:07;;;;;;;;;;;;;;;;;;5051623;28;20464;-83
2024/04/03 14:45:34;;;;;;;;;;;;;;;;;;5052586;28;19981;-83
2024/04/03 14:48:00;;;;;;;;;;;;;;;;;;5052547;28;20016;-83
2024/04/03 14:50:27;;;;;;;;;;;;;;;;;;5052093;28;19966;-84
2024/04/03 14:52:53;;;;;;;;;;;;;;;;;;5054880;28;20385;-83
2024/04/03 14:55:20;;;;;;;;;;;;;;;;;;5053447;28;19992;-84
2024/04/03 14:57:48;;;;;;;;;;;;;;;;;;5053058;28;19944;-83
2024/04/03 15:00:14;;;;;;;;;;;;;;;;;;5048327;28;19955;-85
2024/04/03 15:02:41;;;;;;;;;;;;;;;;;;5044083;28;19966;-83
2024/04/03 15:05:09;;;;;;;;;;;;;;;;;;5047143;28;20124;-83
2024/04/03 15:07:35;;;;;;;;;;;;;;;;;;5045384;28;19981;-82
2024/04/03 15:10:01;;;;;;;;;;;;;;;;;;5051323;28;20374;-83
2024/04/03 15:12:29;;;;;;;;;;;;;;;;;;5049865;28;20005;-83
2024/04/03 15:14:55;;;;;;;;;;;;;;;;;;5047208;28;20037;-85
2024/04/03 15:17:22;;;;;;;;;;;;;;;;;;5049079;28;20427;-83
2024/04/03 15:19:48;;;;;;;;;;;;;;;;;;5052326;28;20089;-83
2024/04/03 15:22:15;;;;;;;;;;;;;;;;;;5044898;28;19946;-83
2024/04/03 15:24:41;;;;;;;;;;;;;;;;;;5046745;28;20099;-83
2024/04/03 15:27:08;;;;;;;;;;;;;;;;;;5048124;28;20440;-84
2024/04/03 15:29:34;;;;;;;;;;;;;;;;;;5054816;28;20035;-81
2024/04/03 15:32:02;;;;;;;;;;;;;;;;;;5047217;28;19992;-80
2024/04/03 15:34:29;;;;;;;;;;;;;;;;;;5041880;28;20347;-79
2024/04/03 15:36:55;;;;;;;;;;;;;;;;;;5048377;28;19998;-82
2024/04/03 15:39:22;;;;;;;;;;;;;;;;;;5046192;28;20408;-80
2024/04/03 15:41:48;;;;;;;;;;;;;;;;;;5036500;28;20051;-82
2024/04/03 15:44:16;;;;;;;;;;;;;;;;;;5038449;28;19972;-79
2024/04/03 15:46:42;;;;;;;;;;;;;;;;;;5039426;28;19937;-81
2024/04/03 15:49:09;;;;;;;;;;;;;;;;;;5045228;28;19974;-81
2024/04/03 15:51:35;;;;;;;;;;;;;;;;;;5041437;28;19957;-81
2024/04/03 15:54:02;;;;;;;;;;;;;;;;;;5045285;28;19956;-79
2024/04/03 15:56:28;;;;;;;;;;;;;;;;;;5044056;28;19999;-82
2024/04/03 15:58:55;;;;;;;;;;;;;;;;;;5049470;28;19928;-81
2024/04/03 16:01:21;;;;;;;;;;;;;;;;;;5048156;28;19925;-81
2024/04/03 16:03:48;;;;;;;;;;;;;;;;;;5041861;28;20009;-79
2024/04/03 16:06:14;;;;;;;;;;;;;;;;;;5044449;28;19939;-81
2024/04/03 16:08:41;;;;;;;;;;;;;;;;;;5042583;28;20408;-80
2024/04/03 16:11:07;;;;;;;;;;;;;;;;;;5044409;28;19991;-80
2024/04/03 16:13:34;;;;;;;;;;;;;;;;;;5045919;28;19972;-79
2024/04/03 16:16:00;;;;;;;;;;;;;;;;;;5043352;28;20322;-81
2024/04/03 16:18:27;;;;;;;;;;;;;;;;;;5044239;28;20066;-82
2024/04/03 16:20:53;;;;;;;;;;;;;;;;;;5049127;28;20486;-81
2024/04/03 16:23:20;;;;;;;;;;;;;;;;;;5046287;28;19925;-82
2024/04/03 16:25:46;;;;;;;;;;;;;;;;;;5040346;28;19925;-81
2024/04/03 16:28:13;;;;;;;;;;;;;;;;;;5040851;28;19935;-80
2024/04/03 16:30:39;;;;;;;;;;;;;;;;;;5043790;28;19931;-80
2024/04/03 16:33:07;;;;;;;;;;;;;;;;;;5042310;28;20448;-81
2024/04/03 16:35:33;;;;;;;;;;;;;;;;;;5043381;28;19951;-80
2024/04/03 16:38:00;;;;;;;;;;;;;;;;;;5048895;28;20271;-81
2024/04/03 16:40:26;;;;;;;;;;;;;;;;;;5048735;28;19925;-81
2024/04/03 16:42:53;;;;;;;;;;;;;;;;;;5041719;28;19964;-80
2024/04/03 16:45:19;;;;;;;;;;;;;;;;;;5045142;28;20002;-82
2024/04/03 16:47:46;;;;;;;;;;;;;;;;;;5040995;28;19939;-83
2024/04/03 16:50:12;;;;;;;;;;;;;;;;;;5042882;28;19976;-81
2024/04/03 16:52:40;;;;;;;;;;;;;;;;;;5045177;28;19958;-81
2024/04/03 16:55:05;;;;;;;;;;;;;;;;;;5041792;28;20037;-80